createdAt,value
2022-11-04T06:58:48.857Z,993.05
2022-11-04T06:59:48.847Z,993.08
2022-11-04T07:00:48.899Z,993.1
2022-11-04T07:01:49.049Z,993.1
2022-11-04T07:02:48.937Z,993.11
2022-11-04T07:03:48.895Z,993.15
2022-11-04T07:04:49.664Z,993.14
2022-11-04T07:05:48.911Z,993.19
2022-11-04T07:06:48.921Z,993.17
2022-11-04T07:07:49.551Z,993.22
2022-11-04T07:08:48.980Z,993.24
2022-11-04T07:09:48.960Z,993.23
2022-11-04T07:10:48.991Z,993.24
2022-11-04T07:11:48.990Z,993.27
2022-11-04T07:12:48.997Z,993.3
2022-11-04T07:13:49.035Z,993.34
2022-11-04T07:14:49.051Z,993.3
2022-11-04T07:15:49.023Z,993.35
2022-11-04T07:16:49.053Z,993.37
2022-11-04T07:17:49.054Z,993.34
2022-11-04T07:18:49.052Z,993.4
2022-11-04T07:19:49.159Z,993.4
2022-11-04T07:20:49.086Z,993.35
2022-11-04T07:21:49.108Z,993.4
2022-11-04T07:22:49.105Z,993.42
2022-11-04T07:23:49.112Z,993.45
2022-11-04T07:24:49.123Z,993.46
2022-11-04T07:25:49.750Z,993.51
2022-11-04T07:26:49.180Z,993.51
2022-11-04T07:27:49.157Z,993.5
2022-11-04T07:28:49.170Z,993.5
2022-11-04T07:29:49.180Z,993.45
2022-11-04T07:30:49.217Z,993.48
2022-11-04T07:31:49.203Z,993.45
2022-11-04T07:32:49.212Z,993.41
2022-11-04T07:33:49.219Z,993.43
2022-11-04T07:34:49.231Z,993.4
2022-11-04T07:35:51.158Z,993.43
2022-11-04T07:36:49.463Z,993.46
2022-11-04T07:37:49.317Z,993.45
2022-11-04T07:38:49.289Z,993.48
2022-11-04T07:39:49.290Z,993.43
2022-11-04T07:40:49.299Z,993.46
2022-11-04T07:41:49.313Z,993.49
2022-11-04T07:42:49.338Z,993.52
2022-11-04T07:43:49.362Z,993.59
2022-11-04T07:44:49.362Z,993.63
2022-11-04T07:45:49.388Z,993.64
2022-11-04T07:46:49.405Z,993.66
2022-11-04T07:47:49.412Z,993.69
2022-11-04T07:48:49.445Z,993.64
2022-11-04T07:49:49.507Z,993.66
2022-11-04T07:50:49.418Z,993.66
2022-11-04T07:51:49.446Z,993.67
2022-11-04T07:52:49.440Z,993.64
2022-11-04T07:53:49.455Z,993.63
2022-11-04T07:54:49.464Z,993.58
2022-11-04T07:55:49.668Z,993.59
2022-11-04T07:56:49.721Z,993.6
2022-11-04T07:57:50.696Z,993.61
2022-11-04T07:58:49.520Z,993.63
2022-11-04T07:59:49.515Z,993.69
2022-11-04T08:00:49.546Z,993.73
2022-11-04T08:01:49.771Z,993.73
2022-11-04T08:02:49.640Z,993.76
2022-11-04T08:03:49.987Z,993.78
2022-11-04T08:04:49.578Z,993.8
2022-11-04T08:05:49.595Z,993.79
2022-11-04T08:06:49.596Z,993.87
2022-11-04T08:07:49.621Z,993.91
2022-11-04T08:08:49.689Z,993.93
2022-11-04T08:09:49.635Z,994.03
2022-11-04T08:10:49.643Z,994.01
2022-11-04T08:11:49.656Z,993.99
2022-11-04T08:12:49.667Z,994.01
2022-11-04T08:13:49.684Z,993.97
2022-11-04T08:14:49.706Z,993.91
2022-11-04T08:15:49.710Z,993.9
2022-11-04T08:16:49.715Z,993.89
2022-11-04T08:17:49.747Z,993.87
2022-11-04T08:18:49.774Z,993.88
2022-11-04T08:19:49.771Z,993.95
2022-11-04T08:20:49.763Z,993.96
2022-11-04T08:21:49.768Z,994.01
2022-11-04T08:22:49.812Z,994.01
2022-11-04T08:23:49.805Z,994.02
2022-11-04T08:24:49.836Z,994.05
2022-11-04T08:25:49.825Z,994.08
2022-11-04T08:26:49.855Z,994.07
2022-11-04T08:27:49.851Z,994.08
2022-11-04T08:28:49.857Z,994.05
2022-11-04T08:29:49.876Z,994.07
2022-11-04T08:30:49.903Z,994.1
2022-11-04T08:31:49.895Z,994.07
2022-11-04T08:32:49.906Z,994.09
2022-11-04T08:33:49.922Z,994.16
2022-11-04T08:34:50.184Z,994.13
2022-11-04T08:35:50.137Z,994.14
2022-11-04T08:36:50.469Z,994.14
2022-11-04T08:37:50.552Z,994.1
2022-11-04T08:38:50.449Z,994.11
2022-11-04T08:39:50.429Z,994.08
2022-11-04T08:40:52.441Z,994.09
2022-11-04T08:41:52.160Z,994.09
2022-11-04T08:42:50.124Z,994.06
2022-11-04T08:43:50.218Z,994.07
2022-11-04T08:44:50.297Z,994.06
2022-11-04T08:45:50.059Z,994.05
2022-11-04T08:46:50.080Z,994.07
2022-11-04T08:47:50.087Z,994.05
2022-11-04T13:55:01.838Z,994.93
2022-11-04T13:56:27.870Z,994.91
2022-11-04T13:57:01.825Z,994.94
2022-11-04T13:58:01.840Z,994.93
2022-11-04T13:59:01.896Z,994.96
2022-11-04T14:00:02.107Z,994.96
2022-11-04T14:01:01.868Z,994.99
2022-11-04T14:02:02.025Z,994.99
2022-11-04T14:03:01.977Z,995.04
2022-11-04T14:04:01.931Z,995.05
2022-11-04T14:05:01.926Z,995.04
2022-11-04T14:06:01.934Z,995.06
2022-11-04T14:07:01.962Z,995.08
2022-11-04T14:08:02.097Z,995.05
2022-11-04T14:09:01.991Z,995.11
2022-11-04T14:10:02.216Z,995.08
2022-11-04T14:11:02.029Z,995.06
2022-11-04T14:12:02.022Z,995.07
2022-11-04T14:13:02.027Z,995.12
2022-11-04T14:14:02.119Z,995.11
2022-11-04T14:15:02.052Z,995.12
2022-11-04T14:16:02.139Z,995.18
2022-11-04T14:17:02.083Z,995.18
2022-11-04T14:18:02.095Z,995.17
2022-11-04T14:19:02.107Z,995.15
2022-11-04T14:20:02.118Z,995.18
2022-11-04T14:21:02.137Z,995.19
2022-11-04T14:22:02.147Z,995.18
2022-11-04T14:23:02.162Z,995.2
2022-11-04T14:24:02.176Z,995.22
2022-11-04T14:25:02.177Z,995.2
2022-11-04T14:26:02.190Z,995.21
2022-11-04T14:27:02.278Z,995.21
2022-11-04T14:28:02.228Z,995.24
2022-11-04T14:29:02.233Z,995.27
2022-11-04T14:30:02.248Z,995.24
2022-11-04T14:31:02.264Z,995.24
2022-11-04T14:32:02.270Z,995.28
2022-11-04T14:33:02.287Z,995.28
2022-11-04T14:34:02.292Z,995.33
2022-11-04T14:35:02.312Z,995.32
2022-11-04T14:36:02.320Z,995.35
2022-11-04T14:37:02.343Z,995.33
2022-11-04T14:38:02.576Z,995.31
2022-11-04T14:39:02.352Z,995.3
2022-11-04T14:40:02.368Z,995.3
2022-11-04T14:41:02.553Z,995.31
2022-11-04T14:42:02.545Z,995.31
2022-11-04T14:43:02.594Z,995.28
2022-11-04T14:44:02.509Z,995.26
2022-11-04T14:45:02.428Z,995.28
2022-11-04T14:46:02.445Z,995.25
2022-11-04T14:47:02.464Z,995.25
2022-11-04T14:48:02.473Z,995.23
